createdAt,value
2019-05-06T00:01:26.789Z,4.70
2019-05-06T00:03:54.349Z,5.23
2019-05-06T00:06:23.679Z,10.80
2019-05-06T00:08:51.362Z,9.13
2019-05-06T00:11:18.945Z,7.40
2019-05-06T00:13:46.368Z,6.67
2019-05-06T00:16:14.470Z,5.77
2019-05-06T00:18:42.070Z,5.83
2019-05-06T00:21:09.588Z,8.60
2019-05-06T00:23:50.699Z,8.90
2019-05-06T00:26:39.449Z,9.57
2019-05-06T00:29:13.990Z,8.07
2019-05-06T00:31:43.892Z,8.47
2019-05-06T00:34:11.060Z,8.37
2019-05-06T00:36:38.428Z,7.77
2019-05-06T00:39:16.588Z,7.80
2019-05-06T00:41:45.908Z,6.87
2019-05-06T00:44:14.370Z,9.00
2019-05-06T00:46:43.774Z,11.50
2019-05-06T00:49:11.213Z,6.87
2019-05-06T00:51:38.662Z,10.90
2019-05-06T00:54:14.369Z,11.53
2019-05-06T00:56:41.948Z,7.53
2019-05-06T00:59:09.369Z,8.90
2019-05-06T01:01:36.830Z,8.30
2019-05-06T01:04:04.721Z,11.83
2019-05-06T01:06:34.340Z,7.90
2019-05-06T01:09:04.575Z,10.77
2019-05-06T01:11:34.520Z,8.17
2019-05-06T01:14:16.302Z,7.10
2019-05-06T01:16:44.011Z,7.00
2019-05-06T01:19:11.667Z,8.33
2019-05-06T01:21:39.654Z,8.27
2019-05-06T01:24:07.290Z,11.23
2019-05-06T01:26:34.712Z,10.67
2019-05-06T01:29:03.920Z,10.60
2019-05-06T01:31:42.340Z,9.13
2019-05-06T01:34:00.927Z,12.47
2019-05-06T01:36:28.317Z,5.17
2019-05-06T01:39:18.010Z,10.33
2019-05-06T01:42:01.430Z,6.03
2019-05-06T01:44:28.845Z,4.37
2019-05-06T01:46:56.264Z,6.13
2019-05-06T01:49:24.530Z,10.07
2019-05-06T01:51:54.417Z,7.77
2019-05-06T01:54:21.795Z,11.03
2019-05-06T01:56:49.276Z,6.10
2019-05-06T01:59:16.746Z,11.77
2019-05-06T02:01:57.450Z,9.50
2019-05-06T02:04:13.949Z,13.43
2019-05-06T02:06:43.563Z,15.57
2019-05-06T02:09:15.129Z,12.47
2019-05-06T02:11:44.184Z,13.80
2019-05-06T02:14:13.991Z,15.63
2019-05-06T02:16:43.522Z,13.03
2019-05-06T02:19:10.773Z,9.27
2019-05-06T02:22:16.148Z,13.77
2019-05-06T02:25:18.665Z,6.20
2019-05-06T02:27:46.226Z,19.13
2019-05-06T02:30:36.723Z,13.93
2019-05-06T02:33:20.249Z,14.83
2019-05-06T02:36:06.569Z,8.90
2019-05-06T02:38:45.964Z,11.97
2019-05-06T02:41:03.876Z,9.47
2019-05-06T02:43:34.290Z,13.17
2019-05-06T02:46:03.932Z,10.53
2019-05-06T02:48:43.221Z,10.30
2019-05-06T02:51:13.584Z,14.30
2019-05-06T02:53:42.944Z,12.10
2019-05-06T02:56:13.228Z,14.57
2019-05-06T02:58:39.802Z,17.33
2019-05-06T03:01:07.225Z,14.30
2019-05-06T03:03:34.585Z,12.40
2019-05-06T03:06:03.958Z,10.40
2019-05-06T03:08:32.855Z,15.97
2019-05-06T03:11:03.633Z,13.43
2019-05-06T03:13:30.051Z,9.20
2019-05-06T03:15:57.508Z,11.60
2019-05-06T03:18:24.927Z,12.57
2019-05-06T03:21:26.979Z,12.87
2019-05-06T03:24:00.079Z,11.30
2019-05-06T03:26:28.117Z,12.73
2019-05-06T03:28:55.608Z,13.33
2019-05-06T03:31:26.179Z,8.93
2019-05-06T03:34:16.031Z,12.17
2019-05-06T03:36:31.162Z,14.03
2019-05-06T03:38:53.618Z,15.87
2019-05-06T03:41:26.167Z,27.30
2019-05-06T03:43:49.597Z,20.67
2019-05-06T03:46:36.545Z,16.00
2019-05-06T03:49:05.586Z,18.17
2019-05-06T03:51:34.254Z,19.30
2019-05-06T03:54:03.611Z,16.53
2019-05-06T03:56:33.844Z,21.50
2019-05-06T03:59:02.814Z,30.17
2019-05-06T04:01:33.367Z,20.53
2019-05-06T04:03:59.727Z,17.20
2019-05-06T04:06:27.714Z,7.30
2019-05-06T04:08:55.757Z,9.63
2019-05-06T04:11:24.176Z,10.83
2019-05-06T04:13:53.508Z,11.10
2019-05-06T04:16:43.745Z,11.20
2019-05-06T04:19:23.795Z,10.43
2019-05-06T04:21:57.795Z,8.33
2019-05-06T04:24:46.803Z,11.03
2019-05-06T04:27:33.571Z,11.33
2019-05-06T04:30:04.632Z,10.13
2019-05-06T04:32:33.956Z,17.40
2019-05-06T04:35:00.501Z,11.10
2019-05-06T04:37:27.949Z,13.33
2019-05-06T04:39:55.686Z,12.37
2019-05-06T04:42:26.796Z,9.73
2019-05-06T04:44:53.266Z,9.87
2019-05-06T04:47:23.844Z,9.40
2019-05-06T04:49:53.299Z,11.27
2019-05-06T04:52:25.578Z,8.70
2019-05-06T04:54:53.450Z,13.90
2019-05-06T04:57:23.447Z,10.97
2019-05-06T04:59:50.003Z,13.93
2019-05-06T05:02:17.524Z,7.13
2019-05-06T05:04:44.980Z,9.60
2019-05-06T05:07:12.873Z,13.27
2019-05-06T05:09:42.814Z,9.90
2019-05-06T05:12:18.102Z,10.07
2019-05-06T05:14:57.845Z,11.73
2019-05-06T05:17:36.403Z,11.17
2019-05-06T05:20:05.868Z,9.60
2019-05-06T05:22:33.283Z,13.13
2019-05-06T05:25:03.265Z,14.90
2019-05-06T05:27:30.095Z,12.40
2019-05-06T05:29:57.784Z,12.07
2019-05-06T05:32:26.980Z,19.03
2019-05-06T05:34:54.597Z,9.63
2019-05-06T05:37:22.750Z,10.17
2019-05-06T05:39:51.986Z,8.40
2019-05-06T05:42:35.539Z,15.70
2019-05-06T05:45:03.251Z,13.20
2019-05-06T05:47:32.994Z,13.43
2019-05-06T05:50:07.953Z,12.93
2019-05-06T05:52:35.675Z,11.50
2019-05-06T05:55:03.246Z,7.97
2019-05-06T05:57:32.187Z,9.90
2019-05-06T06:00:00.074Z,11.43
2019-05-06T06:02:27.463Z,6.93
2019-05-06T06:04:57.746Z,8.57
2019-05-06T06:07:24.480Z,9.20
2019-05-06T06:09:59.377Z,7.53
2019-05-06T06:12:26.873Z,10.67
2019-05-06T06:15:22.813Z,10.77
2019-05-06T06:18:12.648Z,11.33
2019-05-06T06:21:17.756Z,10.57
2019-05-06T06:23:36.852Z,9.50
2019-05-06T06:26:05.205Z,6.10
2019-05-06T06:28:33.301Z,4.47
2019-05-06T06:31:23.326Z,4.97
2019-05-06T06:33:53.752Z,7.70
2019-05-06T06:36:46.472Z,7.27
2019-05-06T06:39:17.740Z,6.07
2019-05-06T06:41:45.255Z,5.03
2019-05-06T06:44:16.386Z,6.80
2019-05-06T06:46:43.830Z,5.97
2019-05-06T06:49:12.737Z,5.13
2019-05-06T06:51:42.527Z,6.03
2019-05-06T06:54:12.145Z,6.70
2019-05-06T06:57:08.754Z,5.57
2019-05-06T06:59:40.332Z,6.67
2019-05-06T07:02:29.917Z,4.03
2019-05-06T07:05:25.474Z,4.73
2019-05-06T07:07:49.623Z,5.30
2019-05-06T07:10:35.401Z,6.87
2019-05-06T07:13:03.148Z,6.37
2019-05-06T07:15:30.697Z,5.27
2019-05-06T07:17:58.134Z,6.53
2019-05-06T07:20:28.018Z,2.73
2019-05-06T07:22:55.576Z,4.27
2019-05-06T07:25:23.122Z,6.10
2019-05-06T07:27:52.813Z,4.73
2019-05-06T07:30:23.022Z,6.90
2019-05-06T07:32:52.633Z,3.83
2019-05-06T07:35:22.398Z,3.97
2019-05-06T07:37:49.315Z,4.50
2019-05-06T07:40:16.723Z,3.33
2019-05-06T07:42:47.457Z,4.63
2019-05-06T07:45:34.141Z,3.60
2019-05-06T07:48:04.545Z,4.13
2019-05-06T07:50:33.221Z,4.60
2019-05-06T07:53:07.046Z,5.30
2019-05-06T07:55:35.017Z,5.23
2019-05-06T07:58:03.031Z,4.47
2019-05-06T08:00:32.717Z,5.80
2019-05-06T08:03:02.302Z,4.57
2019-05-06T08:05:29.362Z,6.27
2019-05-06T08:07:56.788Z,6.03
2019-05-06T08:10:24.246Z,4.57
2019-05-06T08:12:52.717Z,4.07
2019-05-06T08:15:22.555Z,6.17
2019-05-06T08:17:52.362Z,7.20
2019-05-06T08:20:22.010Z,4.60
2019-05-06T08:22:57.636Z,2.83
2019-05-06T08:25:25.107Z,6.80
2019-05-06T08:27:53.227Z,2.43
2019-05-06T08:30:22.961Z,2.20
2019-05-06T08:32:50.315Z,4.33
2019-05-06T08:35:18.093Z,3.63
2019-05-06T08:37:45.756Z,3.60
2019-05-06T08:40:13.413Z,3.07
2019-05-06T08:42:42.603Z,2.77
2019-05-06T08:45:12.682Z,2.93
2019-05-06T08:47:42.309Z,7.50
2019-05-06T08:50:25.169Z,3.33
2019-05-06T08:53:13.638Z,8.67
2019-05-06T08:55:42.110Z,2.30
2019-05-06T08:58:09.613Z,6.87
2019-05-06T09:00:43.367Z,9.60
2019-05-06T09:03:10.825Z,2.60
2019-05-06T09:05:38.304Z,3.97
2019-05-06T09:08:05.755Z,8.03
2019-05-06T09:10:33.132Z,5.50
2019-05-06T09:13:01.988Z,6.37
2019-05-06T09:15:29.772Z,3.53
2019-05-06T09:17:57.239Z,3.63
2019-05-06T09:20:24.653Z,1.73
2019-05-06T09:22:52.263Z,3.20
2019-05-06T09:25:19.910Z,6.07
2019-05-06T09:28:13.218Z,3.97
2019-05-06T09:31:02.365Z,1.30
2019-05-06T09:33:42.364Z,2.10
2019-05-06T09:36:09.440Z,4.23
2019-05-06T09:38:36.922Z,1.67
2019-05-06T09:41:05.060Z,2.40
2019-05-06T09:43:32.875Z,1.50
2019-05-06T09:46:02.388Z,3.63
2019-05-06T09:48:49.378Z,2.53
2019-05-06T09:51:16.818Z,4.00
2019-05-06T09:54:04.081Z,1.77
2019-05-06T09:56:57.153Z,1.77
2019-05-06T09:59:24.669Z,2.40
2019-05-06T10:01:52.843Z,2.57
2019-05-06T10:04:20.498Z,3.57
2019-05-06T10:06:56.523Z,2.10
2019-05-06T10:09:17.313Z,3.87
2019-05-06T10:11:44.858Z,3.27
2019-05-06T10:14:12.940Z,3.63
2019-05-06T10:16:42.834Z,3.57
2019-05-06T10:19:10.002Z,3.47
2019-05-06T10:21:37.429Z,2.30
2019-05-06T10:24:05.065Z,3.13
2019-05-06T10:26:37.933Z,4.90
2019-05-06T10:29:24.949Z,1.90
2019-05-06T10:32:03.484Z,2.27
2019-05-06T10:34:32.780Z,2.07
2019-05-06T10:37:20.061Z,3.67
2019-05-06T10:39:54.355Z,2.03
2019-05-06T10:42:28.450Z,2.93
2019-05-06T10:45:12.371Z,2.40
2019-05-06T10:47:42.207Z,1.50
2019-05-06T10:50:09.678Z,2.73
2019-05-06T10:52:55.453Z,4.40
2019-05-06T10:55:23.289Z,2.50
2019-05-06T10:57:52.957Z,3.97
2019-05-06T11:00:23.063Z,2.40
2019-05-06T11:03:14.397Z,3.40
2019-05-06T11:05:39.542Z,6.17
2019-05-06T11:08:06.926Z,8.53
2019-05-06T11:10:40.825Z,5.70
2019-05-06T11:13:03.846Z,1.47
2019-05-06T11:15:32.975Z,2.23
2019-05-06T11:18:04.047Z,2.87
2019-05-06T11:20:29.990Z,3.07
2019-05-06T11:22:57.565Z,2.37
2019-05-06T11:25:25.032Z,6.07
2019-05-06T11:27:53.286Z,3.30
2019-05-06T11:30:43.256Z,4.57
2019-05-06T11:33:35.984Z,1.70
2019-05-06T11:36:24.565Z,3.10
2019-05-06T11:38:52.287Z,4.00
2019-05-06T11:41:19.899Z,2.20
2019-05-06T11:43:47.475Z,2.63
2019-05-06T11:46:14.897Z,2.80
2019-05-06T11:48:43.252Z,2.37
2019-05-06T11:51:13.015Z,2.00
2019-05-06T11:53:40.510Z,1.70
2019-05-06T11:56:07.957Z,2.43
2019-05-06T11:58:43.291Z,2.37
2019-05-06T12:01:16.540Z,3.27
2019-05-06T12:03:44.028Z,3.77
2019-05-06T12:06:13.073Z,6.90
2019-05-06T12:08:43.001Z,3.20
2019-05-06T12:11:12.526Z,3.07
2019-05-06T12:13:39.378Z,2.57
2019-05-06T12:16:07.051Z,4.23
2019-05-06T12:18:34.484Z,3.53
2019-05-06T12:21:10.989Z,4.07
2019-05-06T12:23:35.477Z,4.43
2019-05-06T12:26:02.424Z,3.10
2019-05-06T12:28:32.549Z,4.67
2019-05-06T12:30:59.612Z,4.73
2019-05-06T12:33:35.688Z,4.30
2019-05-06T12:36:13.473Z,3.30
2019-05-06T12:39:00.683Z,5.77
2019-05-06T12:41:30.144Z,5.10
2019-05-06T12:43:58.150Z,2.87
2019-05-06T12:46:37.660Z,12.67
2019-05-06T12:49:05.186Z,13.53
2019-05-06T12:51:32.590Z,8.13
2019-05-06T12:54:00.076Z,8.63
2019-05-06T12:56:27.541Z,6.23
2019-05-06T12:58:55.040Z,8.13
2019-05-06T13:01:22.533Z,4.53
2019-05-06T13:03:52.422Z,3.93
2019-05-06T13:06:19.404Z,9.57
2019-05-06T13:08:58.939Z,4.30
2019-05-06T13:11:16.519Z,3.20
2019-05-06T13:13:56.529Z,5.17
2019-05-06T13:16:13.434Z,3.90
2019-05-06T13:18:47.007Z,3.40
2019-05-06T13:21:12.571Z,2.60
2019-05-06T13:23:43.724Z,5.57
2019-05-06T13:26:12.914Z,3.20
2019-05-06T13:28:44.394Z,4.33
2019-05-06T13:31:20.416Z,5.73
2019-05-06T13:33:54.485Z,7.07
2019-05-06T13:36:22.624Z,3.97
2019-05-06T13:39:01.418Z,5.87
2019-05-06T13:41:21.956Z,3.03
2019-05-06T13:43:57.986Z,3.07
2019-05-06T13:46:33.967Z,4.70
2019-05-06T13:49:22.539Z,4.70
2019-05-06T13:52:04.239Z,4.17
2019-05-06T13:54:30.662Z,3.47
2019-05-06T13:56:58.206Z,3.40
2019-05-06T13:59:29.824Z,3.93
2019-05-06T14:02:23.529Z,3.37
2019-05-06T14:04:52.702Z,2.53
2019-05-06T14:07:20.316Z,4.97
2019-05-06T14:09:47.692Z,5.40
2019-05-06T14:12:15.211Z,4.93
2019-05-06T14:14:43.324Z,6.17
2019-05-06T14:17:12.777Z,4.30
2019-05-06T14:19:42.602Z,5.80
2019-05-06T14:22:12.299Z,4.60
2019-05-06T14:24:43.096Z,3.53
2019-05-06T14:27:11.654Z,3.50
2019-05-06T14:30:04.649Z,2.40
2019-05-06T14:32:32.949Z,3.17
2019-05-06T14:35:00.438Z,2.77
2019-05-06T14:37:27.880Z,4.30
2019-05-06T14:39:59.499Z,4.40
2019-05-06T14:42:26.876Z,3.30
2019-05-06T14:44:54.311Z,3.70
2019-05-06T14:47:29.985Z,1.93
2019-05-06T14:49:57.455Z,2.50
2019-05-06T14:52:24.913Z,1.97
2019-05-06T14:54:54.630Z,2.40
2019-05-06T14:57:23.218Z,2.30
2019-05-06T14:59:54.847Z,1.87
2019-05-06T15:02:25.993Z,4.30
2019-05-06T15:04:53.599Z,3.53
2019-05-06T15:07:22.039Z,4.10
2019-05-06T15:09:58.509Z,2.67
2019-05-06T15:12:19.060Z,2.30
2019-05-06T15:14:46.485Z,2.83
2019-05-06T15:17:14.508Z,2.87
2019-05-06T15:19:42.902Z,3.07
2019-05-06T15:22:12.979Z,3.67
2019-05-06T15:24:42.600Z,2.70
2019-05-06T15:27:11.898Z,1.80
2019-05-06T15:29:40.279Z,2.23
2019-05-06T15:32:19.412Z,3.10
2019-05-06T15:35:18.117Z,2.90
2019-05-06T15:37:53.435Z,3.20
2019-05-06T15:40:32.132Z,5.43
2019-05-06T15:42:53.183Z,3.93
2019-05-06T15:45:21.766Z,4.20
2019-05-06T15:47:49.226Z,5.07
2019-05-06T15:50:17.178Z,4.93
2019-05-06T15:52:44.542Z,4.07
2019-05-06T15:55:13.369Z,4.87
2019-05-06T15:57:43.273Z,4.17
2019-05-06T16:00:13.010Z,7.30
2019-05-06T16:02:41.973Z,6.00
2019-05-06T16:05:17.722Z,10.60
2019-05-06T16:07:39.175Z,5.83
2019-05-06T16:10:07.062Z,6.63
2019-05-06T16:12:34.539Z,7.87
2019-05-06T16:15:02.659Z,6.37
2019-05-06T16:17:30.202Z,5.20
2019-05-06T16:19:57.638Z,5.77
2019-05-06T16:22:25.062Z,4.83
2019-05-06T16:25:02.642Z,8.07
2019-05-06T16:27:30.347Z,4.00
2019-05-06T16:29:57.816Z,4.60
2019-05-06T16:32:25.193Z,4.80
2019-05-06T16:34:52.666Z,3.30
2019-05-06T16:37:22.253Z,2.60
2019-05-06T16:39:49.648Z,6.80
2019-05-06T16:42:17.116Z,7.20
2019-05-06T16:44:45.397Z,5.43
2019-05-06T16:47:32.434Z,2.60
2019-05-06T16:49:59.932Z,3.87
2019-05-06T16:52:27.392Z,2.70
2019-05-06T16:54:54.840Z,5.53
2019-05-06T16:57:23.173Z,3.00
2019-05-06T16:59:52.219Z,2.87
2019-05-06T17:02:26.603Z,4.87
2019-05-06T17:05:12.498Z,5.10
2019-05-06T17:07:42.220Z,2.77
2019-05-06T17:10:11.854Z,4.50
2019-05-06T17:12:39.466Z,5.23
2019-05-06T17:15:07.965Z,6.63
2019-05-06T17:17:43.300Z,3.07
2019-05-06T17:20:05.286Z,5.13
2019-05-06T17:22:33.644Z,2.97
2019-05-06T17:25:02.434Z,2.73
2019-05-06T17:27:31.914Z,4.57
2019-05-06T17:30:07.850Z,5.13
2019-05-06T17:32:38.320Z,3.50
2019-05-06T17:35:07.461Z,4.30
2019-05-06T17:38:03.394Z,3.27
2019-05-06T17:40:32.708Z,4.73
2019-05-06T17:43:02.411Z,3.97
2019-05-06T17:46:02.196Z,6.93
2019-05-06T17:48:46.812Z,17.70
2019-05-06T17:51:16.142Z,10.70
2019-05-06T17:53:46.961Z,9.20
2019-05-06T17:56:14.821Z,7.30
2019-05-06T17:58:42.515Z,6.93
2019-05-06T18:01:12.538Z,4.80
2019-05-06T18:03:40.252Z,5.20
2019-05-06T18:06:13.684Z,3.37
2019-05-06T18:08:37.071Z,3.60
2019-05-06T18:11:04.728Z,4.83
2019-05-06T18:13:34.957Z,6.23
2019-05-06T18:16:03.614Z,5.97
2019-05-06T18:18:31.647Z,4.33
2019-05-06T18:20:59.517Z,3.03
2019-05-06T18:23:26.957Z,5.03
2019-05-06T18:25:54.328Z,5.17
2019-05-06T18:28:22.800Z,4.87
2019-05-06T18:30:52.120Z,6.07
2019-05-06T18:33:19.726Z,5.63
2019-05-06T18:35:47.236Z,3.10
2019-05-06T18:38:14.737Z,3.60
2019-05-06T18:40:42.499Z,3.50
2019-05-06T18:43:10.186Z,3.43
2019-05-06T18:45:37.782Z,3.97
2019-05-06T18:48:05.218Z,4.57
2019-05-06T18:50:32.678Z,4.13
2019-05-06T18:53:02.306Z,4.03
2019-05-06T18:55:29.594Z,3.00
2019-05-06T18:57:57.074Z,4.13
2019-05-06T19:00:24.713Z,2.60
2019-05-06T19:02:52.408Z,3.23
2019-05-06T19:05:26.975Z,4.00
2019-05-06T19:07:54.196Z,2.33
2019-05-06T19:10:25.943Z,3.43
2019-05-06T19:12:53.596Z,4.03
2019-05-06T19:15:22.037Z,3.13
2019-05-06T19:17:49.575Z,3.53
2019-05-06T19:20:17.179Z,4.53
2019-05-06T19:22:44.730Z,4.40
2019-05-06T19:25:14.652Z,5.33
2019-05-06T19:27:42.370Z,3.73
2019-05-06T19:30:12.833Z,3.83
2019-05-06T19:32:42.382Z,6.43
2019-05-06T19:35:09.672Z,5.47
2019-05-06T19:37:37.254Z,5.23
2019-05-06T19:40:05.453Z,6.80
2019-05-06T19:42:46.361Z,5.80
2019-05-06T19:45:02.670Z,8.63
2019-05-06T19:47:31.954Z,8.47
2019-05-06T19:49:59.662Z,8.53
2019-05-06T19:52:27.026Z,9.00
2019-05-06T19:54:54.459Z,11.77
2019-05-06T19:57:21.873Z,10.10
2019-05-06T19:59:49.313Z,9.93
2019-05-06T20:02:16.644Z,10.90
2019-05-06T20:04:46.806Z,10.77
2019-05-06T20:07:22.894Z,10.70
2019-05-06T20:10:08.648Z,9.83
2019-05-06T20:12:43.560Z,11.47
2019-05-06T20:15:30.180Z,10.27
2019-05-06T20:17:57.601Z,8.87
2019-05-06T20:20:25.017Z,9.40
2019-05-06T20:22:52.376Z,10.33
2019-05-06T20:25:21.940Z,10.50
2019-05-06T20:27:49.365Z,11.53
2019-05-06T20:30:16.955Z,11.17
2019-05-06T20:32:44.513Z,11.90
2019-05-06T20:35:13.069Z,12.33
2019-05-06T20:37:42.544Z,13.13
2019-05-06T20:40:12.478Z,15.17
2019-05-06T20:42:42.641Z,13.67
2019-05-06T20:45:12.684Z,13.37
2019-05-06T20:47:40.347Z,14.27
2019-05-06T20:50:08.135Z,13.17
2019-05-06T20:52:35.541Z,14.97
2019-05-06T20:55:12.438Z,15.07
2019-05-06T20:57:33.005Z,17.73
2019-05-06T21:00:00.542Z,14.60
2019-05-06T21:02:27.961Z,16.27
2019-05-06T21:04:55.375Z,18.00
2019-05-06T21:07:23.191Z,17.87
2019-05-06T21:09:52.506Z,18.87
2019-05-06T21:12:21.879Z,18.03
2019-05-06T21:14:49.348Z,21.27
2019-05-06T21:17:16.769Z,20.63
2019-05-06T21:19:44.207Z,20.70
2019-05-06T21:22:13.287Z,17.03
2019-05-06T21:24:42.869Z,16.60
2019-05-06T21:27:12.222Z,17.70
2019-05-06T21:29:41.910Z,15.77
2019-05-06T21:32:09.079Z,18.30
2019-05-06T21:34:36.493Z,18.47
2019-05-06T21:37:03.919Z,20.73
2019-05-06T21:39:32.774Z,16.90
2019-05-06T21:42:00.393Z,17.70
2019-05-06T21:44:27.827Z,18.30
2019-05-06T21:46:55.298Z,18.00
2019-05-06T21:49:22.989Z,16.47
2019-05-06T21:51:50.666Z,15.47
2019-05-06T21:54:18.092Z,18.83
2019-05-06T21:56:45.497Z,20.07
2019-05-06T21:59:13.136Z,15.73
2019-05-06T22:01:42.954Z,15.57
2019-05-06T22:04:12.551Z,16.87
2019-05-06T22:06:39.614Z,17.57
2019-05-06T22:09:07.565Z,16.43
2019-05-06T22:11:34.916Z,18.83
2019-05-06T22:14:02.441Z,15.93
2019-05-06T22:16:32.215Z,17.13
2019-05-06T22:18:59.264Z,17.40
2019-05-06T22:21:26.687Z,16.83
2019-05-06T22:24:04.684Z,15.77
2019-05-06T22:26:32.595Z,15.43
2019-05-06T22:29:02.064Z,14.53
2019-05-06T22:31:29.502Z,15.20
2019-05-06T22:33:57.117Z,15.10
2019-05-06T22:36:24.673Z,14.83
2019-05-06T22:38:52.950Z,15.13
2019-05-06T22:41:24.832Z,13.10
2019-05-06T22:43:50.415Z,12.53
2019-05-06T22:46:18.355Z,12.37
2019-05-06T22:48:45.877Z,12.60
2019-05-06T22:51:13.288Z,13.17
2019-05-06T22:53:42.539Z,12.63
2019-05-06T22:56:12.445Z,10.47
2019-05-06T22:58:39.865Z,9.37
2019-05-06T23:01:35.434Z,10.33
2019-05-06T23:04:03.148Z,10.67
2019-05-06T23:06:32.735Z,10.13
2019-05-06T23:08:59.824Z,8.87
2019-05-06T23:11:27.255Z,10.17
2019-05-06T23:13:54.774Z,9.80
2019-05-06T23:16:22.118Z,8.27
2019-05-06T23:18:49.545Z,10.73
2019-05-06T23:21:16.951Z,9.07
2019-05-06T23:23:44.407Z,10.07
2019-05-06T23:26:22.699Z,7.87
2019-05-06T23:28:49.820Z,7.13
2019-05-06T23:31:17.428Z,7.30
2019-05-06T23:33:45.706Z,8.03
2019-05-06T23:36:13.224Z,6.20
2019-05-06T23:39:17.051Z,6.70
2019-05-06T23:42:22.786Z,8.17
2019-05-06T23:45:27.055Z,9.50
2019-05-06T23:48:30.987Z,6.33
2019-05-06T23:51:34.970Z,6.80
2019-05-06T23:54:39.059Z,6.30
2019-05-06T23:57:05.292Z,5.93
2019-05-06T23:59:32.867Z,6.47
